Terminal Aerodrome Forecast
Issued by NWS

Home | Current Version | Previous Version | Text Only | Print | Product List | Glossary On
Versions: 1 2 3 4 5 6 7 8 9 10 11 12 13 14 15 16 17 18 19 20
000
FTUS45 KBOI 231520 AAA
TAFMYL
TAF AMD
KMYL 231520Z 2315/2412 VRB03KT P6SM SCT020 OVC050
      TEMPO 2315/2317 5SM -SN BR BKN020
     FM231700 19010KT 3SM -SN BR OVC015
     FM232200 19010KT 5SM -SHSN BR SCT015 OVC025
     FM240200 VRB03KT P6SM VCSH SCT030 BKN050
     FM241000 20006KT 2SM -SN BR OVC015=

USA.gov is the U.S. government's official web portal to all federal, state and local government web resources and services.